Imogene, Iowa
Current Conditions -  °F | °C
As of 11:55 AM on Friday 19 Dec 2014 (Local Time) from KSDA Reporting Station
Haze Haze  
Wind Chill: 24°   Ceiling: 700
Heat Index: 32°   Visibility: 6mi
Dew Point: 30°   Wind: 10mph
Humidity: 93%   Direction: 200°SSW
Pressure: 30.25"   Gusts: NA
Location:  40.88°N, 95.43°W
Report Text: KSDA 191755Z AUTO 20009KT 6SM BR OVC007 M00/M01 A3025 RMK AO2
Loading
Personal Weather Stations






























Interactive Weather Map New forecast layout! Learn more

10-Day Weather Forecast

Advertisements
Track Severe Weather on mobile